AAL414 KPHX-KDEN
Flight info
| Callsign | AAL414 |
|---|---|
| Flight time | N/A |
| Altitude | 37000 |
| Route | MRBIL1 YOOPR CRUDD TBARR4 |
| Aircraft | A20N/M-SDE2E3FGHIRWXY/LB1 |
Departure
| Time | 2026-05-06 12:26 |
|---|---|
| Airport | Phoenix Sky Harbor International Airport (KPHX) |
Arrival
| Time | N/A |
|---|---|
| Airport | Denver International Airport (KDEN) |
| Time | Latitude | Longitude | Altitude | Speed | Heading |
|---|---|---|---|---|---|
| 2026-05-06 11:55 | 33.43341 | -111.99940 | 1127 ft | 0 kts | 0° |
| 2026-05-06 12:13 | 33.43339 | -111.99940 | 1129 ft | 3 kts | 0° |
| 2026-05-06 12:14 | 33.43312 | -111.99940 | 1129 ft | 3 kts | 0° |
| 2026-05-06 12:14 | 33.43290 | -111.99952 | 1129 ft | 3 kts | 52° |
| 2026-05-06 12:14 | 33.43284 | -111.99977 | 1129 ft | 0 kts | 95° |
| 2026-05-06 12:17 | 33.43284 | -111.99976 | 1129 ft | 0 kts | 95° |
| 2026-05-06 12:17 | 33.43283 | -111.99968 | 1129 ft | 2 kts | 93° |
| 2026-05-06 12:18 | 33.43282 | -111.99937 | 1129 ft | 4 kts | 91° |
| 2026-05-06 12:18 | 33.43278 | -111.99880 | 1128 ft | 9 kts | 103° |
| 2026-05-06 12:18 | 33.43265 | -111.99838 | 1127 ft | 0 kts | 114° |
| 2026-05-06 12:18 | 33.43262 | -111.99831 | 1127 ft | 2 kts | 117° |
| 2026-05-06 12:19 | 33.43241 | -111.99794 | 1127 ft | 8 kts | 123° |
| 2026-05-06 12:19 | 33.43217 | -111.99719 | 1127 ft | 10 kts | 98° |
| 2026-05-06 12:19 | 33.43214 | -111.99629 | 1127 ft | 11 kts | 90° |
| 2026-05-06 12:19 | 33.43214 | -111.99535 | 1127 ft | 11 kts | 89° |
| 2026-05-06 12:20 | 33.43216 | -111.99438 | 1128 ft | 10 kts | 89° |
| 2026-05-06 12:20 | 33.43208 | -111.99371 | 1129 ft | 6 kts | 118° |
| 2026-05-06 12:20 | 33.43197 | -111.99355 | 1130 ft | 0 kts | 139° |
| 2026-05-06 12:24 | 33.43196 | -111.99355 | 1130 ft | 0 kts | 139° |
| 2026-05-06 12:25 | 33.43160 | -111.99330 | 1130 ft | 17 kts | 163° |
| 2026-05-06 12:25 | 33.43098 | -111.99393 | 1129 ft | 12 kts | 269° |
| 2026-05-06 12:25 | 33.43098 | -111.99585 | 1128 ft | 54 kts | 270° |
| 2026-05-06 12:25 | 33.43102 | -112.00378 | 1128 ft | 133 kts | 270° |
| 2026-05-06 12:26 | 33.43104 | -112.01741 | 1172 ft | 189 kts | 273° |
| 2026-05-06 12:26 | 33.43098 | -112.03392 | 1658 ft | 196 kts | 270° |
| 2026-05-06 12:26 | 33.43103 | -112.04958 | 2362 ft | 190 kts | 273° |
| 2026-05-06 12:26 | 33.43144 | -112.06518 | 2991 ft | 191 kts | 274° |
| 2026-05-06 12:27 | 33.43193 | -112.08167 | 3392 ft | 206 kts | 274° |
| 2026-05-06 12:27 | 33.43248 | -112.09933 | 3765 ft | 221 kts | 274° |
| 2026-05-06 12:27 | 33.43306 | -112.11848 | 4163 ft | 238 kts | 273° |
| 2026-05-06 12:27 | 33.43366 | -112.13915 | 4541 ft | 259 kts | 273° |
| 2026-05-06 12:28 | 33.43440 | -112.16032 | 5371 ft | 259 kts | 277° |
| 2026-05-06 12:28 | 33.44032 | -112.18020 | 6208 ft | 257 kts | 308° |
| 2026-05-06 12:28 | 33.45396 | -112.19373 | 6959 ft | 257 kts | 337° |
| 2026-05-06 12:28 | 33.47135 | -112.19796 | 7643 ft | 260 kts | 0° |
| 2026-05-06 12:29 | 33.48923 | -112.19739 | 8284 ft | 263 kts | 2° |
| 2026-05-06 12:29 | 33.50766 | -112.19674 | 8960 ft | 266 kts | 1° |
| 2026-05-06 12:29 | 33.52613 | -112.19543 | 9650 ft | 269 kts | 6° |
| 2026-05-06 12:29 | 33.54467 | -112.19186 | 10211 ft | 276 kts | 12° |
| 2026-05-06 12:30 | 33.56397 | -112.18643 | 10550 ft | 292 kts | 14° |
| 2026-05-06 12:30 | 33.58439 | -112.18032 | 10844 ft | 310 kts | 13° |
| 2026-05-06 12:30 | 33.60529 | -112.17257 | 11219 ft | 325 kts | 24° |
| 2026-05-06 12:30 | 33.62490 | -112.15846 | 11862 ft | 332 kts | 38° |
| 2026-05-06 12:31 | 33.64161 | -112.13934 | 12517 ft | 336 kts | 46° |
| 2026-05-06 12:31 | 33.65768 | -112.11861 | 13168 ft | 342 kts | 47° |
| 2026-05-06 12:31 | 33.67368 | -112.09781 | 13843 ft | 347 kts | 47° |
| 2026-05-06 12:31 | 33.69020 | -112.07633 | 14515 ft | 350 kts | 46° |
| 2026-05-06 12:32 | 33.70701 | -112.05472 | 15155 ft | 357 kts | 46° |
| 2026-05-06 12:32 | 33.72390 | -112.03315 | 15798 ft | 361 kts | 46° |
| 2026-05-06 12:32 | 33.74107 | -112.01115 | 16446 ft | 366 kts | 47° |
| 2026-05-06 12:32 | 33.75770 | -111.98766 | 17113 ft | 370 kts | 51° |
| 2026-05-06 12:33 | 33.77332 | -111.96340 | 17738 ft | 373 kts | 51° |
| 2026-05-06 12:33 | 33.78918 | -111.93832 | 18362 ft | 376 kts | 51° |
| 2026-05-06 12:33 | 33.80508 | -111.91310 | 18958 ft | 381 kts | 51° |
| 2026-05-06 12:33 | 33.82090 | -111.88803 | 19559 ft | 384 kts | 51° |
| 2026-05-06 12:34 | 33.83719 | -111.86225 | 20167 ft | 387 kts | 51° |
| 2026-05-06 12:34 | 33.85350 | -111.83645 | 20748 ft | 390 kts | 50° |
| 2026-05-06 12:34 | 33.86995 | -111.81041 | 21323 ft | 393 kts | 50° |
| 2026-05-06 12:34 | 33.88641 | -111.78438 | 21902 ft | 396 kts | 51° |
| 2026-05-06 12:35 | 33.90312 | -111.75790 | 22486 ft | 399 kts | 51° |
| 2026-05-06 12:35 | 33.91986 | -111.73137 | 23052 ft | 402 kts | 51° |
| 2026-05-06 12:35 | 33.93677 | -111.70451 | 23606 ft | 404 kts | 51° |
| 2026-05-06 12:35 | 33.95386 | -111.67736 | 24152 ft | 406 kts | 51° |
| 2026-05-06 12:36 | 33.97087 | -111.65033 | 24677 ft | 409 kts | 51° |
| 2026-05-06 12:36 | 33.98842 | -111.62342 | 25181 ft | 411 kts | 47° |
| 2026-05-06 12:36 | 34.00849 | -111.59899 | 25679 ft | 412 kts | 39° |
| 2026-05-06 12:36 | 34.03090 | -111.57805 | 26173 ft | 412 kts | 32° |
| 2026-05-06 12:37 | 34.05502 | -111.55913 | 26678 ft | 414 kts | 30° |
| 2026-05-06 12:37 | 34.07939 | -111.54067 | 27168 ft | 416 kts | 30° |
| 2026-05-06 12:37 | 34.10418 | -111.52191 | 27639 ft | 417 kts | 31° |
| 2026-05-06 12:37 | 34.12850 | -111.50346 | 28059 ft | 420 kts | 31° |
| 2026-05-06 12:38 | 34.15326 | -111.48458 | 28497 ft | 423 kts | 31° |
| 2026-05-06 12:38 | 34.17813 | -111.46554 | 28938 ft | 425 kts | 31° |
| 2026-05-06 12:38 | 34.20320 | -111.44627 | 29377 ft | 427 kts | 32° |
| 2026-05-06 12:38 | 34.22839 | -111.42689 | 29799 ft | 430 kts | 32° |
| 2026-05-06 12:39 | 34.25343 | -111.40758 | 30209 ft | 433 kts | 32° |
| 2026-05-06 12:39 | 34.27891 | -111.38792 | 30604 ft | 435 kts | 32° |
| 2026-05-06 12:39 | 34.30468 | -111.36798 | 30964 ft | 438 kts | 32° |
| 2026-05-06 12:39 | 34.33030 | -111.34815 | 31295 ft | 441 kts | 32° |
| 2026-05-06 12:40 | 34.35624 | -111.32806 | 31654 ft | 442 kts | 32° |
| 2026-05-06 12:40 | 34.38199 | -111.30810 | 32037 ft | 442 kts | 32° |
| 2026-05-06 12:40 | 34.40794 | -111.28804 | 32410 ft | 443 kts | 31° |
| 2026-05-06 12:40 | 34.43361 | -111.26813 | 32767 ft | 443 kts | 31° |
| 2026-05-06 12:41 | 34.45979 | -111.24792 | 33093 ft | 445 kts | 31° |
| 2026-05-06 12:41 | 34.48578 | -111.22763 | 33417 ft | 446 kts | 31° |
| 2026-05-06 12:41 | 34.51186 | -111.20726 | 33751 ft | 447 kts | 30° |
| 2026-05-06 12:41 | 34.53799 | -111.18695 | 34086 ft | 447 kts | 30° |
| 2026-05-06 12:42 | 34.56405 | -111.16674 | 34407 ft | 448 kts | 29° |
| 2026-05-06 12:42 | 34.59051 | -111.14622 | 34701 ft | 449 kts | 30° |
| 2026-05-06 12:42 | 34.61667 | -111.12593 | 34987 ft | 449 kts | 28° |
| 2026-05-06 12:42 | 34.64360 | -111.10691 | 35276 ft | 448 kts | 25° |
| 2026-05-06 12:43 | 34.67094 | -111.08896 | 35564 ft | 448 kts | 24° |
| 2026-05-06 12:43 | 34.69861 | -111.07095 | 35808 ft | 449 kts | 24° |
| 2026-05-06 12:43 | 34.72610 | -111.05318 | 36031 ft | 450 kts | 24° |
| 2026-05-06 12:43 | 34.75361 | -111.03522 | 36236 ft | 450 kts | 24° |
| 2026-05-06 12:44 | 34.78142 | -111.01698 | 36422 ft | 452 kts | 24° |
| 2026-05-06 12:44 | 34.80916 | -110.99879 | 36612 ft | 454 kts | 24° |
| 2026-05-06 12:44 | 34.83691 | -110.98057 | 36797 ft | 455 kts | 24° |
| 2026-05-06 12:44 | 34.86467 | -110.96234 | 36975 ft | 456 kts | 24° |
| 2026-05-06 12:45 | 34.89252 | -110.94403 | 37143 ft | 457 kts | 24° |
| 2026-05-06 12:45 | 34.92048 | -110.92562 | 37229 ft | 459 kts | 24° |
| 2026-05-06 12:46 | 35.00449 | -110.87018 | 37259 ft | 458 kts | 24° |
| 2026-05-06 12:46 | 35.06065 | -110.83307 | 37220 ft | 457 kts | 24° |
| 2026-05-06 12:47 | 35.11637 | -110.79621 | 37194 ft | 457 kts | 24° |
| 2026-05-06 12:47 | 35.17241 | -110.75908 | 37184 ft | 457 kts | 24° |
| 2026-05-06 12:48 | 35.22812 | -110.72210 | 37180 ft | 457 kts | 24° |
| 2026-05-06 12:48 | 35.28396 | -110.68495 | 37184 ft | 456 kts | 24° |
| 2026-05-06 12:49 | 35.33939 | -110.64801 | 37192 ft | 456 kts | 24° |
| 2026-05-06 12:49 | 35.39523 | -110.61076 | 37199 ft | 456 kts | 24° |
| 2026-05-06 12:50 | 35.45099 | -110.57349 | 37205 ft | 456 kts | 24° |
| 2026-05-06 12:50 | 35.50654 | -110.53630 | 37210 ft | 457 kts | 24° |
| 2026-05-06 12:51 | 35.56218 | -110.49897 | 37215 ft | 457 kts | 24° |
| 2026-05-06 12:51 | 35.61704 | -110.45993 | 37220 ft | 459 kts | 29° |
| 2026-05-06 12:52 | 35.66854 | -110.41283 | 37225 ft | 462 kts | 37° |
| 2026-05-06 12:52 | 35.71480 | -110.35802 | 37232 ft | 465 kts | 44° |
| 2026-05-06 12:53 | 35.75819 | -110.29903 | 37237 ft | 465 kts | 46° |
| 2026-05-06 12:53 | 35.80114 | -110.24026 | 37243 ft | 464 kts | 46° |
| 2026-05-06 12:54 | 35.84447 | -110.18115 | 37247 ft | 464 kts | 46° |
| 2026-05-06 12:54 | 35.88754 | -110.12243 | 37247 ft | 463 kts | 46° |
| 2026-05-06 12:55 | 35.93053 | -110.06377 | 37247 ft | 463 kts | 46° |
| 2026-05-06 12:55 | 35.97384 | -110.00458 | 37240 ft | 463 kts | 46° |
| 2026-05-06 12:56 | 36.01662 | -109.94601 | 37221 ft | 463 kts | 46° |
| 2026-05-06 12:56 | 36.05991 | -109.88666 | 37195 ft | 463 kts | 46° |
| 2026-05-06 12:57 | 36.10305 | -109.82739 | 37167 ft | 464 kts | 46° |
| 2026-05-06 12:57 | 36.14585 | -109.76848 | 37140 ft | 464 kts | 46° |
| 2026-05-06 12:58 | 36.18891 | -109.70912 | 37123 ft | 463 kts | 46° |
| 2026-05-06 12:58 | 36.23173 | -109.64997 | 37122 ft | 463 kts | 46° |
| 2026-05-06 12:59 | 36.27452 | -109.59074 | 37124 ft | 463 kts | 46° |
| 2026-05-06 12:59 | 36.31755 | -109.53111 | 37127 ft | 462 kts | 46° |
| 2026-05-06 13:00 | 36.36027 | -109.47176 | 37126 ft | 463 kts | 46° |
| 2026-05-06 13:00 | 36.40302 | -109.41227 | 37138 ft | 463 kts | 45° |
| 2026-05-06 13:01 | 36.44560 | -109.35297 | 37161 ft | 462 kts | 45° |
| 2026-05-06 13:01 | 36.48830 | -109.29340 | 37193 ft | 462 kts | 46° |
| 2026-05-06 13:02 | 36.53096 | -109.23373 | 37228 ft | 462 kts | 46° |
| 2026-05-06 13:02 | 36.57361 | -109.17396 | 37230 ft | 462 kts | 46° |
| 2026-05-06 13:03 | 36.61620 | -109.11419 | 37215 ft | 462 kts | 46° |
| 2026-05-06 13:03 | 36.65876 | -109.05434 | 37193 ft | 462 kts | 46° |
| 2026-05-06 13:04 | 36.70119 | -108.99458 | 37184 ft | 462 kts | 46° |
| 2026-05-06 13:04 | 36.74345 | -108.93494 | 37172 ft | 462 kts | 45° |
| 2026-05-06 13:05 | 36.78594 | -108.87487 | 37151 ft | 462 kts | 45° |
| 2026-05-06 13:05 | 36.82835 | -108.81480 | 37130 ft | 462 kts | 45° |
| 2026-05-06 13:06 | 36.87060 | -108.75487 | 37104 ft | 461 kts | 45° |
| 2026-05-06 13:06 | 36.91295 | -108.69466 | 37085 ft | 461 kts | 45° |
| 2026-05-06 13:07 | 36.95496 | -108.63483 | 37085 ft | 462 kts | 45° |
| 2026-05-06 13:07 | 36.99732 | -108.57440 | 37099 ft | 462 kts | 45° |
| 2026-05-06 13:08 | 37.03951 | -108.51410 | 37125 ft | 462 kts | 45° |
| 2026-05-06 13:08 | 37.08161 | -108.45380 | 37161 ft | 461 kts | 45° |
| 2026-05-06 13:09 | 37.12378 | -108.39330 | 37194 ft | 461 kts | 45° |
| 2026-05-06 13:09 | 37.16598 | -108.33265 | 37225 ft | 461 kts | 46° |
| 2026-05-06 13:10 | 37.20776 | -108.27249 | 37254 ft | 461 kts | 46° |
| 2026-05-06 13:10 | 37.24985 | -108.21176 | 37279 ft | 461 kts | 46° |
| 2026-05-06 13:11 | 37.29194 | -108.15093 | 37300 ft | 461 kts | 45° |
| 2026-05-06 13:11 | 37.33367 | -108.09051 | 37318 ft | 461 kts | 45° |
| 2026-05-06 13:12 | 37.37561 | -108.02969 | 37325 ft | 460 kts | 45° |
| 2026-05-06 13:12 | 37.41729 | -107.96911 | 37338 ft | 460 kts | 45° |
| 2026-05-06 13:13 | 37.45907 | -107.90827 | 37369 ft | 460 kts | 45° |
| 2026-05-06 13:13 | 37.50072 | -107.84750 | 37409 ft | 460 kts | 45° |
| 2026-05-06 13:14 | 37.54240 | -107.78657 | 37445 ft | 460 kts | 45° |
| 2026-05-06 13:14 | 37.58420 | -107.72536 | 37476 ft | 460 kts | 45° |
| 2026-05-06 13:15 | 37.62553 | -107.66473 | 37417 ft | 460 kts | 45° |
| 2026-05-06 13:15 | 37.66713 | -107.60358 | 37320 ft | 460 kts | 45° |
| 2026-05-06 13:16 | 37.70883 | -107.54212 | 37341 ft | 459 kts | 45° |
| 2026-05-06 13:16 | 37.75060 | -107.48200 | 37460 ft | 458 kts | 41° |
| 2026-05-06 13:17 | 37.79628 | -107.42638 | 37482 ft | 456 kts | 38° |
| 2026-05-06 13:17 | 37.84280 | -107.37186 | 37476 ft | 456 kts | 38° |
| 2026-05-06 13:18 | 37.88921 | -107.31723 | 37473 ft | 456 kts | 38° |
| 2026-05-06 13:18 | 37.93560 | -107.26237 | 37463 ft | 457 kts | 38° |
| 2026-05-06 13:19 | 37.98162 | -107.20780 | 37465 ft | 456 kts | 38° |
| 2026-05-06 13:19 | 38.02783 | -107.15290 | 37495 ft | 456 kts | 39° |
| 2026-05-06 13:20 | 38.07404 | -107.09786 | 37489 ft | 456 kts | 39° |
| 2026-05-06 13:20 | 38.12032 | -107.04266 | 37486 ft | 456 kts | 38° |
| 2026-05-06 13:21 | 38.16463 | -106.98439 | 37468 ft | 460 kts | 45° |
| 2026-05-06 13:21 | 38.20551 | -106.92265 | 37389 ft | 460 kts | 46° |
| 2026-05-06 13:22 | 38.24642 | -106.86018 | 37321 ft | 460 kts | 46° |
| 2026-05-06 13:22 | 38.28719 | -106.79800 | 37275 ft | 459 kts | 45° |
| 2026-05-06 13:23 | 38.32809 | -106.73560 | 37278 ft | 459 kts | 45° |
| 2026-05-06 13:23 | 38.36900 | -106.67308 | 37312 ft | 460 kts | 45° |
| 2026-05-06 13:24 | 38.40977 | -106.61067 | 37333 ft | 460 kts | 45° |
| 2026-05-06 13:24 | 38.45063 | -106.54798 | 37135 ft | 460 kts | 45° |
| 2026-05-06 13:24 | 38.47071 | -106.51714 | 36937 ft | 457 kts | 45° |
| 2026-05-06 13:25 | 38.49112 | -106.48573 | 36734 ft | 454 kts | 45° |
| 2026-05-06 13:25 | 38.51124 | -106.45475 | 36512 ft | 452 kts | 45° |
| 2026-05-06 13:25 | 38.53093 | -106.42441 | 36271 ft | 449 kts | 45° |
| 2026-05-06 13:25 | 38.55080 | -106.39380 | 36002 ft | 449 kts | 45° |
| 2026-05-06 13:26 | 38.57088 | -106.36282 | 35666 ft | 449 kts | 45° |
| 2026-05-06 13:26 | 38.59060 | -106.33235 | 35258 ft | 450 kts | 46° |
| 2026-05-06 13:26 | 38.61068 | -106.30129 | 34744 ft | 451 kts | 46° |
| 2026-05-06 13:26 | 38.63044 | -106.27071 | 34184 ft | 453 kts | 46° |
| 2026-05-06 13:27 | 38.65051 | -106.23960 | 33570 ft | 455 kts | 46° |
| 2026-05-06 13:27 | 38.67063 | -106.20866 | 32845 ft | 459 kts | 46° |
| 2026-05-06 13:27 | 38.69137 | -106.17710 | 32045 ft | 462 kts | 45° |
| 2026-05-06 13:27 | 38.71198 | -106.14574 | 31271 ft | 464 kts | 45° |
| 2026-05-06 13:28 | 38.73244 | -106.11459 | 30682 ft | 460 kts | 46° |
| 2026-05-06 13:28 | 38.75296 | -106.08322 | 30139 ft | 455 kts | 46° |
| 2026-05-06 13:28 | 38.77311 | -106.05229 | 29636 ft | 449 kts | 46° |
| 2026-05-06 13:28 | 38.79272 | -106.02203 | 29177 ft | 442 kts | 46° |
| 2026-05-06 13:29 | 38.81225 | -105.99209 | 28736 ft | 434 kts | 46° |
| 2026-05-06 13:29 | 38.83136 | -105.96268 | 28346 ft | 432 kts | 46° |
| 2026-05-06 13:29 | 38.85038 | -105.93324 | 27949 ft | 429 kts | 46° |
| 2026-05-06 13:29 | 38.86955 | -105.90376 | 27507 ft | 426 kts | 46° |
| 2026-05-06 13:30 | 38.88836 | -105.87476 | 27055 ft | 421 kts | 46° |
| 2026-05-06 13:30 | 38.90670 | -105.84633 | 26825 ft | 417 kts | 47° |
| 2026-05-06 13:30 | 38.92508 | -105.81775 | 26391 ft | 415 kts | 47° |
| 2026-05-06 13:30 | 38.94334 | -105.78927 | 25974 ft | 411 kts | 47° |
| 2026-05-06 13:31 | 38.96140 | -105.76105 | 25564 ft | 408 kts | 47° |
| 2026-05-06 13:31 | 38.97916 | -105.73328 | 25154 ft | 405 kts | 47° |
| 2026-05-06 13:31 | 38.99691 | -105.70551 | 24725 ft | 401 kts | 47° |
| 2026-05-06 13:31 | 39.01443 | -105.67809 | 24313 ft | 398 kts | 47° |
| 2026-05-06 13:32 | 39.03201 | -105.65073 | 23909 ft | 394 kts | 47° |
| 2026-05-06 13:32 | 39.04952 | -105.62357 | 23512 ft | 390 kts | 47° |
| 2026-05-06 13:32 | 39.06661 | -105.59705 | 23115 ft | 388 kts | 47° |
| 2026-05-06 13:32 | 39.08365 | -105.57056 | 22708 ft | 385 kts | 48° |
| 2026-05-06 13:33 | 39.10076 | -105.54390 | 22294 ft | 382 kts | 48° |
| 2026-05-06 13:33 | 39.11760 | -105.51764 | 21882 ft | 379 kts | 48° |
| 2026-05-06 13:33 | 39.13413 | -105.49184 | 21471 ft | 376 kts | 48° |
| 2026-05-06 13:33 | 39.15082 | -105.46578 | 21035 ft | 374 kts | 48° |
| 2026-05-06 13:34 | 39.16706 | -105.44016 | 20580 ft | 371 kts | 48° |
| 2026-05-06 13:34 | 39.18332 | -105.41434 | 20105 ft | 368 kts | 49° |
| 2026-05-06 13:34 | 39.19915 | -105.38910 | 19637 ft | 364 kts | 49° |
| 2026-05-06 13:34 | 39.21500 | -105.36385 | 19072 ft | 359 kts | 49° |
| 2026-05-06 13:35 | 39.23038 | -105.33930 | 18619 ft | 352 kts | 49° |
| 2026-05-06 13:35 | 39.24578 | -105.31474 | 18189 ft | 347 kts | 49° |
| 2026-05-06 13:35 | 39.26060 | -105.29112 | 17926 ft | 338 kts | 50° |
| 2026-05-06 13:35 | 39.27511 | -105.26742 | 17811 ft | 336 kts | 56° |
| 2026-05-06 13:36 | 39.28549 | -105.24055 | 17643 ft | 339 kts | 70° |
| 2026-05-06 13:36 | 39.29078 | -105.21102 | 17222 ft | 339 kts | 81° |
| 2026-05-06 13:36 | 39.29410 | -105.18110 | 16837 ft | 335 kts | 82° |
| 2026-05-06 13:36 | 39.29716 | -105.15131 | 16461 ft | 333 kts | 81° |
| 2026-05-06 13:37 | 39.30040 | -105.12211 | 16093 ft | 327 kts | 81° |
| 2026-05-06 13:37 | 39.30368 | -105.09325 | 15782 ft | 322 kts | 81° |
| 2026-05-06 13:37 | 39.30693 | -105.06519 | 15488 ft | 319 kts | 81° |
| 2026-05-06 13:37 | 39.31022 | -105.03697 | 15119 ft | 318 kts | 81° |
| 2026-05-06 13:38 | 39.31363 | -105.00890 | 14731 ft | 317 kts | 79° |
| 2026-05-06 13:38 | 39.31817 | -104.98151 | 14379 ft | 312 kts | 76° |
| 2026-05-06 13:38 | 39.32316 | -104.95468 | 14286 ft | 298 kts | 76° |
| 2026-05-06 13:38 | 39.32791 | -104.92943 | 14239 ft | 283 kts | 76° |
| 2026-05-06 13:39 | 39.33241 | -104.90547 | 14203 ft | 269 kts | 76° |
| 2026-05-06 13:39 | 39.33673 | -104.88257 | 14197 ft | 260 kts | 75° |
| 2026-05-06 13:39 | 39.34196 | -104.86021 | 14196 ft | 260 kts | 72° |
| 2026-05-06 13:39 | 39.34760 | -104.83785 | 13932 ft | 261 kts | 71° |
| 2026-05-06 13:40 | 39.35326 | -104.81561 | 13626 ft | 259 kts | 72° |
| 2026-05-06 13:40 | 39.35874 | -104.79386 | 13345 ft | 257 kts | 72° |
| 2026-05-06 13:40 | 39.36430 | -104.77196 | 13092 ft | 254 kts | 71° |
| 2026-05-06 13:40 | 39.36982 | -104.75050 | 12746 ft | 255 kts | 71° |
| 2026-05-06 13:41 | 39.37666 | -104.72919 | 12361 ft | 257 kts | 53° |
| 2026-05-06 13:41 | 39.39007 | -104.71449 | 12036 ft | 254 kts | 26° |
| 2026-05-06 13:41 | 39.40581 | -104.70485 | 11782 ft | 250 kts | 25° |
| 2026-05-06 13:41 | 39.42161 | -104.69578 | 11502 ft | 248 kts | 18° |
| 2026-05-06 13:42 | 39.43827 | -104.69154 | 11228 ft | 245 kts | 3° |
| 2026-05-06 13:42 | 39.45520 | -104.69111 | 10963 ft | 243 kts | 0° |
| 2026-05-06 13:42 | 39.47218 | -104.69124 | 10686 ft | 241 kts | 0° |
| 2026-05-06 13:42 | 39.48885 | -104.69132 | 10446 ft | 237 kts | 0° |
| 2026-05-06 13:43 | 39.50512 | -104.69127 | 10414 ft | 234 kts | 1° |
| 2026-05-06 13:43 | 39.52137 | -104.69115 | 10410 ft | 233 kts | 1° |
| 2026-05-06 13:43 | 39.53770 | -104.69101 | 10413 ft | 233 kts | 1° |
| 2026-05-06 13:43 | 39.55380 | -104.69083 | 10422 ft | 233 kts | 1° |
| 2026-05-06 13:44 | 39.57014 | -104.69064 | 10432 ft | 233 kts | 1° |
| 2026-05-06 13:44 | 39.58694 | -104.69048 | 10415 ft | 250 kts | 1° |
| 2026-05-06 13:44 | 39.60430 | -104.69031 | 10182 ft | 249 kts | 1° |
| 2026-05-06 13:44 | 39.62143 | -104.69013 | 9863 ft | 243 kts | 1° |
| 2026-05-06 13:45 | 39.63785 | -104.68995 | 9542 ft | 231 kts | 1° |
| 2026-05-06 13:45 | 39.66924 | -104.68957 | 9069 ft | 213 kts | 2° |
| 2026-05-06 13:45 | 39.68359 | -104.68939 | 8775 ft | 200 kts | 2° |
| 2026-05-06 13:46 | 39.69709 | -104.68922 | 8496 ft | 189 kts | 2° |
| 2026-05-06 13:46 | 39.70984 | -104.68907 | 8246 ft | 177 kts | 3° |
| 2026-05-06 13:46 | 39.72172 | -104.68896 | 8011 ft | 165 kts | 5° |
| 2026-05-06 13:46 | 39.73289 | -104.68881 | 7802 ft | 159 kts | 4° |
| 2026-05-06 13:47 | 39.74392 | -104.68867 | 7608 ft | 160 kts | 5° |
| 2026-05-06 13:47 | 39.75515 | -104.68857 | 7412 ft | 161 kts | 5° |
| 2026-05-06 13:47 | 39.76635 | -104.68845 | 7211 ft | 160 kts | 5° |
| 2026-05-06 13:47 | 39.77752 | -104.68831 | 7008 ft | 159 kts | 5° |
| 2026-05-06 13:48 | 39.78852 | -104.68817 | 6799 ft | 158 kts | 4° |
| 2026-05-06 13:48 | 39.79940 | -104.68806 | 6587 ft | 157 kts | 5° |
| 2026-05-06 13:48 | 39.81020 | -104.68789 | 6382 ft | 155 kts | 4° |
| 2026-05-06 13:48 | 39.82101 | -104.68775 | 6175 ft | 153 kts | 3° |